Time;durP1;ratioP1;P1;durP2;ratioP2;P2;SDS_P1;SDS_P2;PMS_P1;PMS_P2;Temp;Humidity;BMP_temperature;BMP_pressure;BME280_temperature;BME280_humidity;BME280_pressure;Samples;Min_cycle;Max_cycle;Signal;HPM_P1;HPM_P2
2021/06/13 00:01:59;;;;;;;12.87;5.40;;;12.60;99.90;;;;;;6201365;23;20178;-82
2021/06/13 00:04:25;;;;;;;17.67;6.50;;;12.60;99.90;;;;;;6203016;23;20174;-78
2021/06/13 00:06:53;;;;;;;11.00;5.57;;;12.60;99.90;;;;;;6203345;23;20190;-77
2021/06/13 00:09:21;;;;;;;14.90;6.07;;;12.60;99.90;;;;;;6201992;23;20220;-82
2021/06/13 00:11:47;;;;;;;10.87;5.70;;;12.50;99.90;;;;;;6203272;23;20897;-80
2021/06/13 00:14:14;;;;;;;14.13;6.33;;;12.50;99.90;;;;;;6203289;23;20169;-80
2021/06/13 00:16:40;;;;;;;9.60;4.90;;;12.50;99.90;;;;;;6202579;23;20193;-80
2021/06/13 00:19:07;;;;;;;9.33;5.20;;;12.50;99.90;;;;;;6240139;22;20176;-90
2021/06/13 00:21:33;;;;;;;7.53;4.87;;;12.50;99.90;;;;;;6298190;22;20176;-88
2021/06/13 00:23:59;;;;;;;8.90;5.07;;;12.50;99.90;;;;;;6297365;22;20168;-82
2021/06/13 00:26:27;;;;;;;7.63;4.70;;;12.40;99.90;;;;;;6300035;22;20502;-80
2021/06/13 00:28:54;;;;;;;10.37;5.00;;;12.40;99.90;;;;;;6297100;22;20469;-81
2021/06/13 00:31:20;;;;;;;16.43;6.87;;;12.40;99.90;;;;;;6300974;22;20175;-90
2021/06/13 00:33:46;;;;;;;13.87;6.20;;;12.50;99.90;;;;;;6300854;22;20167;-90
2021/06/13 00:36:13;;;;;;;13.33;5.87;;;12.50;99.90;;;;;;6300867;22;20210;-90
2021/06/13 00:38:39;;;;;;;12.20;5.27;;;12.50;99.90;;;;;;6299417;22;20236;-79
2021/06/13 00:41:07;;;;;;;11.57;5.30;;;12.50;99.90;;;;;;6299650;22;20175;-81
2021/06/13 00:43:34;;;;;;;13.33;5.97;;;12.50;99.90;;;;;;6302206;22;20172;-87
2021/06/13 00:46:01;;;;;;;9.07;5.10;;;12.40;99.90;;;;;;6300321;22;20168;-90
2021/06/13 00:48:27;;;;;;;10.80;6.20;;;12.40;99.90;;;;;;6301068;22;20176;-85
2021/06/13 00:50:55;;;;;;;8.10;5.00;;;12.40;99.90;;;;;;6299840;22;20183;-89
2021/06/13 00:53:21;;;;;;;10.10;5.00;;;12.40;99.90;;;;;;6300317;22;20168;-80
2021/06/13 00:55:48;;;;;;;9.70;5.87;;;12.30;99.90;;;;;;6299747;22;20214;-80
2021/06/13 00:58:14;;;;;;;10.00;5.33;;;12.30;99.90;;;;;;6300551;22;20560;-84
2021/06/13 01:00:43;;;;;;;11.90;5.77;;;12.30;99.90;;;;;;6301185;22;20192;-87
2021/06/13 01:03:10;;;;;;;14.33;6.30;;;12.30;99.90;;;;;;6300978;22;20225;-89
2021/06/13 01:05:37;;;;;;;13.33;5.87;;;12.30;99.90;;;;;;6298835;22;20200;-83
2021/06/13 01:08:10;;;;;;;13.23;6.30;;;12.30;99.90;;;;;;6300820;22;20530;-79
2021/06/13 01:10:46;;;;;;;9.50;5.47;;;12.30;99.90;;;;;;6300637;22;20175;-91
2021/06/13 01:13:18;;;;;;;12.43;5.53;;;12.20;99.90;;;;;;6300669;22;20204;-90
2021/06/13 01:15:56;;;;;;;9.33;5.53;;;12.20;99.90;;;;;;6301714;22;20164;-89
2021/06/13 01:18:29;;;;;;;10.37;5.50;;;12.20;99.90;;;;;;6300128;22;20629;-89
2021/06/13 01:21:02;;;;;;;8.53;4.83;;;12.20;99.90;;;;;;6300491;22;20171;-88
2021/06/13 01:24:21;;;;;;;11.67;5.73;;;12.10;99.90;;;;;;6301421;22;20170;-91
2021/06/13 01:27:11;;;;;;;7.83;5.00;;;12.20;99.90;;;;;;6301178;22;20249;-92
2021/06/13 01:29:42;;;;;;;6.80;4.50;;;12.10;99.90;;;;;;6301847;22;20164;-80
2021/06/13 01:32:13;;;;;;;9.83;5.70;;;12.10;99.90;;;;;;6301769;22;20737;-92
2021/06/13 01:34:45;;;;;;;12.17;5.70;;;12.10;99.90;;;;;;6302045;22;20168;-89
2021/06/13 01:37:15;;;;;;;9.53;6.30;;;12.10;99.90;;;;;;6302332;22;20176;-91
2021/06/13 01:39:45;;;;;;;12.30;5.77;;;12.10;99.90;;;;;;6302388;22;20169;-81
2021/06/13 01:42:13;;;;;;;9.93;4.80;;;12.10;99.90;;;;;;6300982;22;20172;-91
2021/06/13 01:44:44;;;;;;;11.87;5.20;;;12.10;99.90;;;;;;6302499;22;20171;-92
2021/06/13 01:47:11;;;;;;;7.33;4.63;;;12.10;99.90;;;;;;6301285;22;20762;-84
2021/06/13 01:49:39;;;;;;;10.63;5.30;;;12.10;99.90;;;;;;6301281;22;20179;-81
2021/06/13 01:52:07;;;;;;;10.97;5.57;;;12.10;99.90;;;;;;6300228;22;20168;-87
2021/06/13 01:54:34;;;;;;;14.03;5.77;;;12.10;99.90;;;;;;6303486;22;20183;-92
2021/06/13 01:57:01;;;;;;;11.87;5.70;;;12.10;99.90;;;;;;6302567;22;20226;-81
2021/06/13 01:59:28;;;;;;;10.43;6.37;;;12.00;99.90;;;;;;6300980;22;20172;-85
2021/06/13 02:01:58;;;;;;;10.93;6.00;;;12.00;99.90;;;;;;6301146;22;20168;-91
2021/06/13 02:04:27;;;;;;;14.23;5.93;;;12.00;99.90;;;;;;6301643;22;20552;-91
2021/06/13 02:06:58;;;;;;;11.77;5.47;;;12.00;99.90;;;;;;6300991;22;20203;-92
2021/06/13 02:09:25;;;;;;;11.00;5.30;;;12.10;99.90;;;;;;6305160;22;20164;-90
2021/06/13 02:11:54;;;;;;;13.17;5.83;;;12.00;99.90;;;;;;6300059;22;20179;-92
2021/06/13 02:14:22;;;;;;;12.13;5.30;;;12.00;99.90;;;;;;6301908;22;20172;-91
2021/06/13 02:16:50;;;;;;;14.20;6.13;;;12.00;99.90;;;;;;6305351;22;20282;-92
2021/06/13 02:19:21;;;;;;;10.20;5.30;;;12.00;99.90;;;;;;6307261;22;20192;-92
2021/06/13 02:21:54;;;;;;;11.37;5.40;;;12.00;99.90;;;;;;6306072;22;20197;-92
2021/06/13 02:24:22;;;;;;;12.10;6.00;;;12.00;99.90;;;;;;6301053;22;20156;-88
2021/06/13 02:26:49;;;;;;;11.47;5.43;;;11.90;99.90;;;;;;6303013;22;20203;-84
2021/06/13 02:29:17;;;;;;;12.63;5.87;;;11.90;99.90;;;;;;6301831;22;20175;-82
2021/06/13 02:31:45;;;;;;;8.00;5.10;;;11.90;99.90;;;;;;6299826;22;20180;-80
2021/06/13 02:34:17;;;;;;;10.30;5.17;;;11.80;99.90;;;;;;6302053;22;20172;-88
2021/06/13 02:36:45;;;;;;;7.87;4.80;;;11.80;99.90;;;;;;6302289;22;20160;-92
2021/06/13 02:39:12;;;;;;;11.13;5.90;;;11.80;99.90;;;;;;6300116;22;20221;-79
2021/06/13 02:41:38;;;;;;;11.70;5.90;;;11.80;99.90;;;;;;6300825;22;20187;-92
2021/06/13 02:44:05;;;;;;;8.23;5.03;;;11.70;99.90;;;;;;6301934;22;20502;-86
2021/06/13 02:46:31;;;;;;;8.77;4.87;;;11.70;99.90;;;;;;6301625;22;20444;-92
2021/06/13 02:48:57;;;;;;;10.83;5.70;;;11.70;99.90;;;;;;6299803;22;20179;-91
2021/06/13 02:51:31;;;;;;;7.87;4.73;;;11.70;99.90;;;;;;6299424;22;20180;-88
2021/06/13 02:54:02;;;;;;;6.77;5.20;;;11.70;99.90;;;;;;6302614;22;20195;-83
2021/06/13 02:56:31;;;;;;;7.60;5.40;;;11.70;99.90;;;;;;6300759;22;20437;-81
2021/06/13 02:59:04;;;;;;;5.57;4.07;;;11.60;99.90;;;;;;6299760;22;20175;-81
2021/06/13 03:01:32;;;;;;;11.87;5.77;;;11.60;99.90;;;;;;6300701;22;20191;-90
2021/06/13 03:04:00;;;;;;;9.53;4.87;;;11.60;99.90;;;;;;6299085;22;20431;-81
2021/06/13 03:06:29;;;;;;;11.60;6.00;;;11.50;99.90;;;;;;6299342;22;20834;-80
2021/06/13 03:08:56;;;;;;;7.37;4.50;;;11.50;99.90;;;;;;6299233;22;20470;-85
2021/06/13 03:11:24;;;;;;;7.63;5.17;;;11.50;99.90;;;;;;6299646;22;20172;-87
2021/06/13 03:13:52;;;;;;;8.00;4.80;;;11.50;99.90;;;;;;6300855;22;20195;-91
2021/06/13 03:16:21;;;;;;;10.47;5.27;;;11.50;99.90;;;;;;6300017;22;20172;-89
2021/06/13 03:18:50;;;;;;;11.27;5.70;;;11.50;99.90;;;;;;6299967;22;20174;-92
2021/06/13 03:21:17;;;;;;;9.20;4.93;;;11.50;99.90;;;;;;6299804;22;20175;-90
2021/06/13 03:23:45;;;;;;;6.73;4.40;;;11.40;99.90;;;;;;6300456;22;20180;-83
2021/06/13 03:26:13;;;;;;;8.43;4.83;;;11.40;99.90;;;;;;6300370;22;20160;-84
2021/06/13 03:28:41;;;;;;;14.17;6.43;;;11.40;99.90;;;;;;6300859;22;20641;-84
2021/06/13 03:31:10;;;;;;;8.40;5.70;;;11.40;99.90;;;;;;6299367;22;20632;-85
2021/06/13 03:33:38;;;;;;;8.40;5.70;;;11.50;99.90;;;;;;6299606;22;20202;-80
2021/06/13 03:36:06;;;;;;;9.50;5.23;;;11.50;99.90;;;;;;6300680;22;20175;-80
2021/06/13 03:38:35;;;;;;;9.70;5.00;;;11.40;99.90;;;;;;6300773;22;20183;-81
2021/06/13 03:41:02;;;;;;;9.93;5.47;;;11.50;99.90;;;;;;6299210;22;20176;-85
2021/06/13 03:43:31;;;;;;;10.30;5.87;;;11.50;99.90;;;;;;6299932;22;20195;-85
2021/06/13 03:45:59;;;;;;;9.23;5.50;;;11.50;99.90;;;;;;6300964;22;20164;-90
2021/06/13 03:48:27;;;;;;;6.77;4.70;;;11.50;99.90;;;;;;6297550;22;20599;-81
2021/06/13 03:50:55;;;;;;;7.63;4.40;;;11.50;99.90;;;;;;6299023;22;20174;-81
2021/06/13 03:53:22;;;;;;;11.90;5.30;;;11.50;99.90;;;;;;6298704;22;20176;-86
2021/06/13 03:55:52;;;;;;;10.43;5.73;;;11.50;99.90;;;;;;6298288;22;20191;-82
2021/06/13 03:58:24;;;;;;;8.47;4.63;;;11.50;99.90;;;;;;6297913;22;20807;-82
2021/06/13 04:00:53;;;;;;;6.53;4.67;;;11.50;99.90;;;;;;6299135;22;20198;-84
2021/06/13 04:03:22;;;;;;;7.80;5.10;;;11.60;99.90;;;;;;6300244;22;20195;-84
2021/06/13 04:05:49;;;;;;;8.50;5.57;;;11.60;99.90;;;;;;6299368;22;20567;-87
2021/06/13 04:08:17;;;;;;;11.10;5.90;;;11.60;99.90;;;;;;6301115;22;20608;-85
2021/06/13 04:10:47;;;;;;;12.23;4.93;;;11.60;99.90;;;;;;6301031;22;20172;-91
2021/06/13 04:13:16;;;;;;;13.77;5.97;;;11.70;99.90;;;;;;6301276;22;20204;-90
2021/06/13 04:15:43;;;;;;;10.23;5.17;;;11.80;99.90;;;;;;6304670;22;20172;-89
2021/06/13 04:18:11;;;;;;;10.33;5.70;;;11.90;99.90;;;;;;6303430;22;20704;-80
2021/06/13 04:20:42;;;;;;;10.97;5.80;;;12.00;99.90;;;;;;6303495;22;20172;-91
2021/06/13 04:23:10;;;;;;;9.20;5.67;;;12.10;99.90;;;;;;6303387;22;20231;-80
2021/06/13 04:25:38;;;;;;;9.43;5.80;;;12.20;99.90;;;;;;6301960;22;20168;-85
2021/06/13 04:28:06;;;;;;;8.50;5.10;;;12.20;99.90;;;;;;6299659;22;20205;-79
2021/06/13 04:30:33;;;;;;;7.17;4.80;;;12.30;99.90;;;;;;6299320;22;20164;-80
2021/06/13 04:33:00;;;;;;;11.37;5.67;;;12.30;99.90;;;;;;6298715;22;20250;-80
2021/06/13 04:35:27;;;;;;;7.70;4.60;;;12.30;99.90;;;;;;6296615;22;20281;-79
2021/06/13 04:37:55;;;;;;;10.73;5.10;;;12.40;99.90;;;;;;6298073;22;20175;-79
2021/06/13 04:40:22;;;;;;;13.77;5.90;;;12.40;99.90;;;;;;6298331;22;20175;-80
2021/06/13 04:42:48;;;;;;;6.63;4.80;;;12.40;99.90;;;;;;6297801;22;20176;-87
2021/06/13 04:45:15;;;;;;;10.90;5.53;;;12.40;99.90;;;;;;6299834;22;20210;-79
2021/06/13 04:47:42;;;;;;;9.13;5.00;;;12.50;99.90;;;;;;6300703;22;20199;-80
2021/06/13 04:50:11;;;;;;;14.37;6.63;;;12.60;99.90;;;;;;6302356;22;20176;-80
2021/06/13 04:52:39;;;;;;;9.97;5.40;;;12.90;99.90;;;;;;6302152;22;20172;-90
2021/06/13 04:55:19;;;;;;;11.10;5.73;;;13.20;99.90;;;;;;6299510;22;20202;-83
2021/06/13 04:58:07;;;;;;;15.30;5.70;;;13.60;99.90;;;;;;6298588;22;20620;-80
2021/06/13 05:00:34;;;;;;;11.73;5.17;;;14.20;99.90;;;;;;6299750;22;20239;-82
2021/06/13 05:03:01;;;;;;;7.27;5.00;;;14.90;99.90;;;;;;6299606;22;20210;-82
2021/06/13 05:05:28;;;;;;;10.83;4.40;;;15.50;99.90;;;;;;6298841;22;20172;-82
2021/06/13 05:07:54;;;;;;;13.27;5.03;;;16.10;99.90;;;;;;6299996;22;20238;-82
2021/06/13 05:10:24;;;;;;;8.87;4.63;;;16.70;99.90;;;;;;6298697;22;20176;-81
2021/06/13 05:12:52;;;;;;;10.13;4.25;;;17.10;99.90;;;;;;6297192;22;20200;-81
2021/06/13 05:15:21;;;;;;;8.60;3.63;;;17.60;99.90;;;;;;6298434;22;20183;-88
2021/06/13 05:17:48;;;;;;;8.43;3.63;;;18.00;99.90;;;;;;6298337;22;20168;-86
2021/06/13 05:20:16;;;;;;;11.32;4.10;;;18.30;99.90;;;;;;6297725;22;20347;-86
2021/06/13 05:22:57;;;;;;;8.27;4.45;;;18.40;99.90;;;;;;6298648;22;20172;-87
2021/06/13 05:25:29;;;;;;;8.73;3.65;;;18.60;99.90;;;;;;6297774;22;20175;-83
2021/06/13 05:27:57;;;;;;;8.15;3.90;;;18.80;99.90;;;;;;6298301;22;20192;-84
2021/06/13 05:30:24;;;;;;;9.32;4.35;;;19.10;99.90;;;;;;6299902;22;20200;-84
2021/06/13 05:32:51;;;;;;;7.55;3.42;;;19.30;99.90;;;;;;6298329;22;20179;-84
2021/06/13 05:35:18;;;;;;;5.25;3.03;;;19.40;99.90;;;;;;6298446;22;20536;-81
2021/06/13 05:37:45;;;;;;;9.90;3.78;;;19.50;99.90;;;;;;6298964;22;20282;-85
2021/06/13 05:40:13;;;;;;;10.68;3.65;;;19.70;99.90;;;;;;6298583;22;20172;-84
2021/06/13 05:42:41;;;;;;;10.75;3.50;;;20.00;99.90;;;;;;6298160;22;20624;-86
2021/06/13 05:45:11;;;;;;;7.80;3.42;;;20.20;99.90;;;;;;6299266;22;20173;-88
2021/06/13 05:47:39;;;;;;;7.50;3.83;;;20.30;99.90;;;;;;6297956;22;20196;-82
2021/06/13 05:50:08;;;;;;;9.73;3.97;;;20.50;99.90;;;;;;6298391;22;20172;-84
2021/06/13 05:52:35;;;;;;;10.15;3.65;;;20.60;99.90;;;;;;6299354;22;20168;-80
2021/06/13 05:55:02;;;;;;;8.00;3.47;;;20.90;99.90;;;;;;6297978;22;20175;-81
2021/06/13 05:57:31;;;;;;;7.35;3.90;;;21.20;99.90;;;;;;6299379;22;20168;-88
2021/06/13 06:00:01;;;;;;;10.35;3.97;;;21.40;99.90;;;;;;6298469;22;20199;-82
2021/06/13 06:02:28;;;;;;;5.72;3.08;;;21.60;99.90;;;;;;6298212;22;20161;-83
2021/06/13 06:04:54;;;;;;;8.40;3.03;;;21.70;99.90;;;;;;6298130;22;20842;-86
2021/06/13 06:07:21;;;;;;;9.40;3.67;;;21.70;99.90;;;;;;6298096;22;20164;-89
2021/06/13 06:09:48;;;;;;;7.47;3.53;;;21.90;99.90;;;;;;6298535;22;20168;-85
2021/06/13 06:12:15;;;;;;;6.10;3.22;;;22.00;99.90;;;;;;6297713;22;20211;-82
2021/06/13 06:14:42;;;;;;;9.65;2.97;;;22.20;99.90;;;;;;6299052;22;20179;-80
2021/06/13 06:17:11;;;;;;;7.82;3.15;;;22.30;99.90;;;;;;6299772;22;20182;-79
2021/06/13 06:19:39;;;;;;;7.53;3.70;;;22.30;99.90;;;;;;6299075;22;20563;-84
2021/06/13 06:22:06;;;;;;;7.53;3.65;;;22.60;99.90;;;;;;6299247;22;20168;-85
2021/06/13 06:24:33;;;;;;;9.25;3.85;;;23.00;99.90;;;;;;6298803;22;20164;-83
2021/06/13 06:27:00;;;;;;;7.78;3.53;;;23.00;99.90;;;;;;6298403;22;20183;-87
2021/06/13 06:29:27;;;;;;;7.60;3.35;;;23.30;99.90;;;;;;6299676;22;20198;-82
2021/06/13 06:31:53;;;;;;;6.20;3.05;;;23.50;99.90;;;;;;6298938;22;20183;-82
2021/06/13 06:34:22;;;;;;;6.45;3.28;;;23.70;99.90;;;;;;6298634;22;20171;-81
2021/06/13 06:36:49;;;;;;;8.80;3.58;;;23.90;99.90;;;;;;6298539;22;20628;-80
2021/06/13 06:39:16;;;;;;;5.15;3.10;;;23.90;99.90;;;;;;6297709;22;20175;-81
2021/06/13 06:41:43;;;;;;;7.35;3.47;;;24.10;99.90;;;;;;6297400;22;20164;-88
2021/06/13 06:44:11;;;;;;;7.85;3.67;;;24.10;99.90;;;;;;6297529;22;20732;-82
2021/06/13 06:46:39;;;;;;;5.10;3.20;;;24.10;99.90;;;;;;6298392;22;20172;-78
2021/06/13 06:49:07;;;;;;;11.05;3.97;;;24.10;99.90;;;;;;6296890;22;20195;-80
2021/06/13 06:51:35;;;;;;;8.32;3.90;;;23.80;99.90;;;;;;6297478;22;20576;-83
2021/06/13 06:54:04;;;;;;;6.40;3.00;;;23.70;99.90;;;;;;6298541;22;20175;-80
2021/06/13 06:56:31;;;;;;;10.80;3.75;;;23.70;99.90;;;;;;6297002;22;20434;-79
2021/06/13 06:58:58;;;;;;;8.68;3.55;;;23.80;99.90;;;;;;6298414;22;20175;-80
2021/06/13 07:01:25;;;;;;;5.68;3.08;;;23.90;99.90;;;;;;6298726;22;20198;-86
2021/06/13 07:03:52;;;;;;;5.50;2.55;;;24.10;99.90;;;;;;6298249;22;20179;-85
2021/06/13 07:09:55;;;;;;;5.38;3.15;;;24.20;99.90;;;;;;6274869;22;20800;-78
2021/06/13 07:12:23;;;;;;;7.30;3.47;;;24.40;99.90;;;;;;6297768;22;20886;-80
2021/06/13 07:14:50;;;;;;;5.90;3.00;;;24.50;99.90;;;;;;6297827;22;20416;-80
2021/06/13 07:17:16;;;;;;;4.95;2.88;;;24.40;99.90;;;;;;6298031;22;20176;-83
2021/06/13 07:19:43;;;;;;;5.28;2.85;;;24.20;99.90;;;;;;6297953;22;20164;-83
2021/06/13 07:22:10;;;;;;;5.07;2.80;;;24.20;99.90;;;;;;6298755;22;20172;-80
2021/06/13 07:24:37;;;;;;;4.63;2.67;;;24.30;99.90;;;;;;6298776;22;20176;-84
2021/06/13 07:27:05;;;;;;;4.75;3.10;;;24.40;99.90;;;;;;6297264;22;20176;-79
2021/06/13 07:29:32;;;;;;;5.75;2.65;;;24.70;99.90;;;;;;6296752;22;20203;-83
2021/06/13 07:32:00;;;;;;;2.78;2.38;;;24.90;99.90;;;;;;6295983;22;20168;-79
2021/06/13 07:34:27;;;;;;;6.57;2.63;;;24.90;99.90;;;;;;6297162;22;20176;-88
2021/06/13 07:36:53;;;;;;;6.03;2.70;;;24.80;99.90;;;;;;6298247;22;20183;-78
2021/06/13 07:39:21;;;;;;;5.10;2.95;;;24.70;99.90;;;;;;6297725;22;20179;-81
2021/06/13 07:41:49;;;;;;;6.47;2.97;;;24.40;99.90;;;;;;6297782;22;20740;-82
2021/06/13 07:44:18;;;;;;;5.88;3.45;;;24.10;99.90;;;;;;6297091;22;20343;-81
2021/06/13 07:46:45;;;;;;;5.88;2.80;;;24.60;99.90;;;;;;6297571;22;20261;-78
2021/06/13 07:49:12;;;;;;;6.40;3.20;;;24.80;99.90;;;;;;6297039;22;20198;-83
2021/06/13 07:51:39;;;;;;;4.93;2.45;;;24.90;99.90;;;;;;6299250;22;20176;-81
2021/06/13 07:54:06;;;;;;;6.93;2.80;;;25.00;99.90;;;;;;6295497;22;20886;-88
2021/06/13 07:56:32;;;;;;;4.03;2.78;;;25.00;99.90;;;;;;6296766;22;20191;-86
2021/06/13 07:58:59;;;;;;;4.65;3.22;;;25.00;99.90;;;;;;6298085;22;20556;-80
2021/06/13 08:01:27;;;;;;;6.05;3.10;;;25.10;99.90;;;;;;6297419;22;20199;-79
2021/06/13 08:03:55;;;;;;;7.78;2.97;;;25.10;99.90;;;;;;6296781;22;20182;-78
2021/06/13 08:06:23;;;;;;;4.97;2.90;;;25.10;99.90;;;;;;6295757;22;20226;-82
2021/06/13 08:08:50;;;;;;;9.25;3.08;;;24.90;99.90;;;;;;6295644;22;20939;-85
2021/06/13 08:11:17;;;;;;;6.05;3.03;;;25.30;99.90;;;;;;6297569;22;20176;-81
2021/06/13 08:13:44;;;;;;;6.90;3.10;;;25.40;99.90;;;;;;6295868;22;20207;-82
2021/06/13 08:16:10;;;;;;;6.68;3.33;;;25.80;99.90;;;;;;6297570;22;20183;-77
2021/06/13 08:18:39;;;;;;;5.28;3.13;;;25.90;99.90;;;;;;6297997;22;20753;-82
2021/06/13 08:21:06;;;;;;;6.25;3.00;;;26.30;99.90;;;;;;6297087;22;20209;-80
2021/06/13 08:23:33;;;;;;;3.72;2.30;;;26.30;99.90;;;;;;6296122;22;20592;-78
2021/06/13 08:26:00;;;;;;;4.75;2.50;;;26.20;99.90;;;;;;6297667;22;20175;-86
2021/06/13 08:28:28;;;;;;;5.95;2.67;;;26.20;99.90;;;;;;6296227;22;20199;-84
2021/06/13 08:30:55;;;;;;;4.97;3.33;;;26.10;99.90;;;;;;6296050;22;20183;-77
2021/06/13 08:33:23;;;;;;;4.97;2.55;;;26.40;99.90;;;;;;6296991;22;20177;-76
2021/06/13 08:35:52;;;;;;;7.68;3.63;;;26.50;99.90;;;;;;6296384;22;20633;-87
2021/06/13 08:38:21;;;;;;;6.07;2.95;;;26.70;99.90;;;;;;6296907;22;20168;-84
2021/06/13 08:40:48;;;;;;;5.70;3.08;;;26.80;99.90;;;;;;6296667;22;20175;-87
2021/06/13 08:43:15;;;;;;;4.88;2.60;;;26.70;99.90;;;;;;6296941;22;20640;-77
2021/06/13 08:45:42;;;;;;;3.40;2.42;;;26.90;99.90;;;;;;6297008;22;20561;-78
2021/06/13 08:48:10;;;;;;;8.20;3.67;;;27.00;99.90;;;;;;6295937;22;20171;-80
2021/06/13 08:50:38;;;;;;;4.30;3.40;;;27.30;99.90;;;;;;6294297;22;20168;-77
2021/06/13 08:53:06;;;;;;;4.38;2.75;;;27.30;99.90;;;;;;6294409;22;20173;-77
2021/06/13 08:55:34;;;;;;;5.95;2.65;;;27.40;99.90;;;;;;6295606;22;20176;-81
2021/06/13 08:58:01;;;;;;;3.55;2.58;;;27.10;99.90;;;;;;6297749;22;20168;-83
2021/06/13 09:00:31;;;;;;;6.18;2.97;;;27.10;99.90;;;;;;6297437;22;20196;-78
2021/06/13 09:02:58;;;;;;;4.80;2.40;;;26.90;99.90;;;;;;6295109;22;20788;-76
2021/06/13 09:05:26;;;;;;;6.75;2.80;;;27.00;99.90;;;;;;6297545;22;20175;-80
2021/06/13 09:07:55;;;;;;;3.53;2.33;;;27.00;99.90;;;;;;6297359;22;20584;-77
2021/06/13 09:10:26;;;;;;;4.50;2.92;;;27.00;99.90;;;;;;6295494;22;20200;-81
2021/06/13 09:13:10;;;;;;;4.53;2.58;;;27.00;99.90;;;;;;6296127;22;20281;-76
2021/06/13 09:15:38;;;;;;;4.25;2.17;;;27.00;99.90;;;;;;6296418;22;20171;-84
2021/06/13 09:18:07;;;;;;;4.03;2.10;;;26.90;99.90;;;;;;6294864;22;20485;-80
2021/06/13 09:20:34;;;;;;;4.25;2.33;;;26.70;99.90;;;;;;6296421;22;20175;-78
2021/06/13 09:23:09;;;;;;;4.32;2.33;;;26.60;99.90;;;;;;6295497;22;20178;-80
2021/06/13 09:25:41;;;;;;;4.95;2.38;;;26.70;99.90;;;;;;6295472;22;20171;-83
2021/06/13 09:28:11;;;;;;;6.45;3.05;;;26.60;99.90;;;;;;6297603;22;20171;-85
2021/06/13 09:30:39;;;;;;;4.53;2.40;;;26.60;99.90;;;;;;6297512;22;20193;-84
2021/06/13 09:33:10;;;;;;;7.10;3.40;;;26.60;99.90;;;;;;6296836;22;20711;-84
2021/06/13 09:35:38;;;;;;;3.83;2.50;;;26.60;99.90;;;;;;6296824;22;20160;-81
2021/06/13 09:38:10;;;;;;;5.50;2.97;;;26.60;99.90;;;;;;6298015;22;20497;-81
2021/06/13 09:40:39;;;;;;;3.92;2.95;;;26.70;99.90;;;;;;6299008;22;20164;-77
2021/06/13 09:43:14;;;;;;;6.35;2.55;;;26.90;99.90;;;;;;6297528;22;20175;-80
2021/06/13 09:45:47;;;;;;;4.95;2.70;;;26.70;99.90;;;;;;6298535;22;20178;-84
2021/06/13 09:48:14;;;;;;;3.65;2.67;;;26.70;99.90;;;;;;6297834;22;20430;-77
2021/06/13 09:50:42;;;;;;;4.68;2.97;;;26.50;99.90;;;;;;6298676;22;20203;-78
2021/06/13 09:53:27;;;;;;;5.55;3.22;;;26.50;99.90;;;;;;6299225;22;20179;-85
2021/06/13 09:56:23;;;;;;;5.45;2.25;;;26.50;99.90;;;;;;6299093;22;20159;-86
2021/06/13 09:58:59;;;;;;;4.63;2.50;;;26.50;99.90;;;;;;6298228;22;20167;-81
2021/06/13 10:01:30;;;;;;;3.85;2.70;;;26.60;99.90;;;;;;6298874;22;20187;-80
2021/06/13 10:03:57;;;;;;;5.25;2.67;;;26.60;99.90;;;;;;6298859;22;20259;-81
2021/06/13 10:06:28;;;;;;;4.70;2.22;;;26.50;99.90;;;;;;6297934;22;20178;-76
2021/06/13 10:08:57;;;;;;;4.15;2.58;;;26.40;99.90;;;;;;6299546;22;20200;-82
2021/06/13 10:11:25;;;;;;;6.07;2.70;;;26.30;99.90;;;;;;6299515;22;20176;-88
2021/06/13 10:13:55;;;;;;;4.80;2.83;;;26.30;99.90;;;;;;6298416;22;20912;-83
2021/06/13 10:16:24;;;;;;;6.57;2.72;;;26.30;99.90;;;;;;6298421;22;20172;-79
2021/06/13 10:18:56;;;;;;;3.42;2.42;;;26.30;99.90;;;;;;6300146;22;20172;-84
2021/06/13 10:21:27;;;;;;;2.45;2.25;;;26.50;99.90;;;;;;6298877;22;20182;-85
2021/06/13 10:23:55;;;;;;;3.97;2.15;;;26.70;99.90;;;;;;6299488;22;20172;-79
2021/06/13 10:26:22;;;;;;;7.38;2.60;;;26.80;99.90;;;;;;6299056;22;20770;-86
2021/06/13 10:28:50;;;;;;;7.10;2.97;;;26.70;99.90;;;;;;6299254;22;20168;-86
2021/06/13 10:31:17;;;;;;;5.68;2.70;;;26.90;99.90;;;;;;6299381;22;20515;-85
2021/06/13 10:33:44;;;;;;;5.20;2.58;;;26.80;99.90;;;;;;6298349;22;20182;-86
2021/06/13 10:36:11;;;;;;;4.88;2.72;;;26.60;99.90;;;;;;6298239;22;20179;-88
2021/06/13 10:38:39;;;;;;;4.95;2.58;;;26.50;99.90;;;;;;6300142;22;20175;-83
2021/06/13 10:41:06;;;;;;;3.45;2.58;;;26.60;99.90;;;;;;6298413;22;20172;-81
2021/06/13 10:43:33;;;;;;;4.00;2.38;;;26.40;99.90;;;;;;6299388;22;20171;-83
2021/06/13 10:46:11;;;;;;;4.75;2.33;;;26.50;99.90;;;;;;6298509;22;20172;-77
2021/06/13 10:48:41;;;;;;;4.93;2.33;;;26.70;99.90;;;;;;6298190;22;20167;-78
2021/06/13 10:51:37;;;;;;;4.32;2.58;;;26.90;99.90;;;;;;6298713;22;20168;-81
2021/06/13 10:54:27;;;;;;;3.17;2.10;;;26.80;99.90;;;;;;6295401;22;20160;-81
2021/06/13 10:56:56;;;;;;;5.18;2.55;;;26.80;99.90;;;;;;6295364;22;20202;-76
2021/06/13 10:59:23;;;;;;;3.83;2.20;;;27.00;99.90;;;;;;6295526;22;20211;-75
2021/06/13 11:02:03;;;;;;;4.60;2.55;;;27.10;99.90;;;;;;6296519;22;20183;-77
2021/06/13 11:04:47;;;;;;;3.47;2.33;;;27.10;99.90;;;;;;6297568;22;20168;-80
2021/06/13 11:07:47;;;;;;;4.65;2.08;;;27.10;99.90;;;;;;6295836;22;20923;-76
2021/06/13 11:10:16;;;;;;;3.55;2.20;;;27.00;99.90;;;;;;6295090;22;20203;-81
2021/06/13 11:12:47;;;;;;;4.97;2.35;;;26.80;99.90;;;;;;6296628;22;20612;-79
2021/06/13 11:15:16;;;;;;;3.50;2.00;;;26.60;99.90;;;;;;6296031;22;20197;-75
2021/06/13 11:17:55;;;;;;;3.95;2.22;;;26.60;99.90;;;;;;6295262;22;20164;-83
2021/06/13 11:20:47;;;;;;;4.25;2.22;;;26.60;99.90;;;;;;6296548;22;20703;-82
2021/06/13 11:23:16;;;;;;;4.93;2.60;;;26.30;99.90;;;;;;6296040;22;20827;-75
2021/06/13 11:25:43;;;;;;;2.95;2.00;;;26.50;99.90;;;;;;6295457;22;20713;-80
2021/06/13 11:28:12;;;;;;;3.80;2.20;;;26.30;99.90;;;;;;6297136;22;20191;-82
2021/06/13 11:30:42;;;;;;;5.55;2.38;;;26.20;99.90;;;;;;6297098;22;20234;-84
2021/06/13 11:33:11;;;;;;;6.97;2.85;;;26.20;99.90;;;;;;6295939;22;20255;-75
2021/06/13 11:35:44;;;;;;;4.00;2.42;;;26.00;99.90;;;;;;6296329;22;20179;-76
2021/06/13 11:38:26;;;;;;;5.90;2.35;;;26.00;99.90;;;;;;6296052;22;20164;-78
2021/06/13 11:40:55;;;;;;;4.70;2.38;;;26.00;99.90;;;;;;6294285;22;20175;-77
2021/06/13 11:43:24;;;;;;;6.15;2.75;;;26.20;99.90;;;;;;6294629;22;20172;-75
2021/06/13 11:45:53;;;;;;;4.35;2.40;;;26.30;99.90;;;;;;6292814;22;20176;-78
2021/06/13 11:48:22;;;;;;;3.28;2.35;;;26.60;99.90;;;;;;6293627;22;20172;-78
2021/06/13 11:51:11;;;;;;;4.50;2.50;;;26.70;99.90;;;;;;6293668;22;20199;-77
2021/06/13 11:53:55;;;;;;;4.85;2.60;;;26.70;99.90;;;;;;6293471;22;20428;-78
2021/06/13 11:56:43;;;;;;;4.68;2.10;;;26.50;99.90;;;;;;6292923;22;20175;-78
2021/06/13 11:59:14;;;;;;;4.57;2.33;;;26.50;99.90;;;;;;6293251;22;20164;-76
2021/06/13 12:01:44;;;;;;;4.57;2.78;;;26.60;99.90;;;;;;6294916;22;20164;-81
2021/06/13 12:04:15;;;;;;;6.47;2.60;;;26.50;99.90;;;;;;6293602;22;20222;-82
2021/06/13 12:06:43;;;;;;;4.70;2.58;;;26.50;99.90;;;;;;6293656;22;20187;-78
2021/06/13 12:09:11;;;;;;;3.47;2.40;;;26.40;99.90;;;;;;6293082;22;20183;-78
2021/06/13 12:11:44;;;;;;;4.13;2.35;;;26.50;99.90;;;;;;6294112;22;20180;-81
2021/06/13 12:14:34;;;;;;;4.60;2.25;;;26.60;99.90;;;;;;6292155;22;20252;-80
2021/06/13 12:17:02;;;;;;;6.93;2.78;;;26.60;99.90;;;;;;6285390;22;20226;-80
2021/06/13 12:19:39;;;;;;;5.60;2.30;;;26.50;99.90;;;;;;6293227;22;20229;-79
2021/06/13 12:22:19;;;;;;;3.60;2.05;;;26.50;99.90;;;;;;6293478;22;20163;-79
2021/06/13 12:27:33;;;;;;;4.15;2.58;;;26.60;99.90;;;;;;6294754;22;20237;-79
2021/06/13 12:30:01;;;;;;;4.72;2.17;;;26.80;99.90;;;;;;6295567;22;20499;-83
2021/06/13 12:32:30;;;;;;;5.70;2.20;;;26.80;99.90;;;;;;6295143;22;20547;-77
2021/06/13 12:35:09;;;;;;;3.88;1.92;;;26.90;99.90;;;;;;6293967;22;20172;-77
2021/06/13 12:37:36;;;;;;;4.72;3.08;;;27.10;99.90;;;;;;6295775;22;20171;-79
2021/06/13 12:40:06;;;;;;;7.55;2.47;;;27.20;99.90;;;;;;6295341;22;20175;-77
2021/06/13 12:42:33;;;;;;;5.45;2.65;;;27.10;99.90;;;;;;6295218;22;20246;-77
2021/06/13 12:45:02;;;;;;;5.68;2.40;;;26.80;99.90;;;;;;6294670;22;20304;-78
2021/06/13 12:47:30;;;;;;;7.07;2.85;;;26.60;99.90;;;;;;6294623;22;20172;-79
2021/06/13 12:49:59;;;;;;;8.20;3.10;;;26.30;99.90;;;;;;6294540;22;20226;-77
2021/06/13 12:52:28;;;;;;;4.88;2.45;;;26.30;99.90;;;;;;6295098;22;20179;-76
2021/06/13 12:54:57;;;;;;;5.18;2.67;;;26.10;99.90;;;;;;6294524;22;20183;-78
2021/06/13 12:57:24;;;;;;;4.68;2.10;;;26.10;99.90;;;;;;6295599;22;20535;-78
2021/06/13 12:59:51;;;;;;;8.88;3.03;;;26.20;99.90;;;;;;6295120;22;20188;-79
2021/06/13 13:02:18;;;;;;;8.10;3.10;;;26.00;99.90;;;;;;6294172;22;20175;-75